Time;durP1;ratioP1;P1;durP2;ratioP2;P2;SDS_P1;SDS_P2;PMS_P1;PMS_P2;Temp;Humidity;BMP_temperature;BMP_pressure;BME280_temperature;BME280_humidity;BME280_pressure;Samples;Min_cycle;Max_cycle;Signal;HPM_P1;HPM_P2
2022/07/10 00:01:54;;;;;;;;;;;15.50;99.90;;;;;;5068835;28;19924;-76
2022/07/10 00:04:20;;;;;;;;;;;15.50;99.90;;;;;;5069555;28;20096;-76
2022/07/10 00:06:46;;;;;;;;;;;15.50;99.90;;;;;;5069425;28;20337;-76
2022/07/10 00:09:15;;;;;;;;;;;15.40;99.90;;;;;;5069414;28;19955;-75
2022/07/10 00:11:41;;;;;;;;;;;15.30;99.90;;;;;;5069833;28;19928;-76
2022/07/10 00:14:07;;;;;;;;;;;15.20;99.90;;;;;;5069381;28;20289;-76
2022/07/10 00:16:33;;;;;;;;;;;15.10;99.90;;;;;;5068983;28;20003;-75
2022/07/10 00:18:58;;;;;;;;;;;15.10;99.90;;;;;;5068333;28;20021;-76
2022/07/10 00:21:24;;;;;;;;;;;15.00;99.90;;;;;;5068421;28;20379;-76
2022/07/10 00:23:49;;;;;;;;;;;15.00;99.90;;;;;;5068007;28;19924;-76
2022/07/10 00:26:15;;;;;;;;;;;15.00;99.90;;;;;;5066954;28;19981;-75
2022/07/10 00:28:40;;;;;;;;;;;14.90;99.90;;;;;;5067896;28;19933;-76
2022/07/10 00:31:06;;;;;;;;;;;14.80;99.90;;;;;;5066963;28;19931;-76
2022/07/10 00:33:32;;;;;;;;;;;14.80;99.90;;;;;;5068914;28;19924;-76
2022/07/10 00:35:58;;;;;;;;;;;14.70;99.90;;;;;;5067616;28;19925;-76
2022/07/10 00:38:23;;;;;;;;;;;14.70;99.90;;;;;;5050461;28;19925;-76
2022/07/10 00:40:49;;;;;;;;;;;14.60;99.90;;;;;;5069420;28;19978;-76
2022/07/10 00:43:14;;;;;;;;;;;14.50;99.90;;;;;;5069038;28;20446;-76
2022/07/10 00:45:40;;;;;;;;;;;14.50;99.90;;;;;;5068630;28;20480;-75
2022/07/10 00:48:05;;;;;;;;;;;14.50;99.90;;;;;;5069442;28;19924;-76
2022/07/10 00:50:31;;;;;;;;;;;14.40;99.90;;;;;;5069276;28;19960;-76
2022/07/10 00:52:57;;;;;;;;;;;14.50;99.90;;;;;;5056674;28;19940;-76
2022/07/10 00:55:23;;;;;;;;;;;14.40;99.90;;;;;;5062986;28;19925;-75
2022/07/10 00:57:48;;;;;;;;;;;14.50;99.90;;;;;;5061944;28;19951;-76
2022/07/10 01:00:15;;;;;;;;;;;14.50;99.90;;;;;;5063521;28;20004;-76
2022/07/10 01:02:43;;;;;;;;;;;14.50;99.90;;;;;;5049394;28;20027;-76
2022/07/10 01:05:09;;;;;;;;;;;14.60;99.90;;;;;;5062622;28;20383;-76
2022/07/10 01:07:36;;;;;;;;;;;14.60;99.90;;;;;;5049332;28;19928;-76
2022/07/10 01:10:02;;;;;;;;;;;14.70;99.90;;;;;;5044886;28;20558;-76
2022/07/10 01:12:28;;;;;;;;;;;14.70;99.90;;;;;;5064075;28;19924;-76
2022/07/10 01:14:54;;;;;;;;;;;14.60;99.90;;;;;;5072731;28;19928;-76
2022/07/10 01:17:19;;;;;;;;;;;14.70;99.90;;;;;;5073341;28;20002;-76
2022/07/10 01:19:45;;;;;;;;;;;14.70;99.90;;;;;;5059686;28;20429;-77
2022/07/10 01:22:11;;;;;;;;;;;14.60;99.90;;;;;;5059907;28;19924;-76
2022/07/10 01:24:36;;;;;;;;;;;14.60;99.90;;;;;;5052974;28;19928;-76
2022/07/10 01:27:02;;;;;;;;;;;14.60;99.90;;;;;;5053062;28;19951;-76
2022/07/10 01:29:28;;;;;;;;;;;14.60;99.90;;;;;;5073064;28;19931;-76
2022/07/10 01:31:54;;;;;;;;;;;14.50;99.90;;;;;;5072820;28;19924;-76
2022/07/10 01:34:19;;;;;;;;;;;14.50;99.90;;;;;;5059923;28;20023;-76
2022/07/10 01:36:45;;;;;;;;;;;14.50;99.90;;;;;;5072729;28;19971;-76
2022/07/10 01:39:10;;;;;;;;;;;14.50;99.90;;;;;;5052775;28;20293;-76
2022/07/10 01:41:36;;;;;;;;;;;14.50;99.90;;;;;;5066108;28;19924;-76
2022/07/10 01:44:02;;;;;;;;;;;14.50;99.90;;;;;;5066336;28;19928;-76
2022/07/10 01:46:27;;;;;;;;;;;14.50;99.90;;;;;;5053343;28;19972;-76
2022/07/10 01:48:53;;;;;;;;;;;14.60;99.90;;;;;;5054348;28;19947;-76
2022/07/10 01:51:19;;;;;;;;;;;14.60;99.90;;;;;;5072607;28;19925;-76
2022/07/10 01:53:44;;;;;;;;;;;14.60;99.90;;;;;;5059189;28;20462;-76
2022/07/10 01:56:11;;;;;;;;;;;14.60;99.90;;;;;;5041911;28;19932;-76
2022/07/10 01:58:37;;;;;;;;;;;14.60;99.90;;;;;;5071485;28;19925;-76
2022/07/10 02:01:03;;;;;;;;;;;14.60;99.90;;;;;;5071910;28;20289;-76
2022/07/10 02:06:21;;;;;;;;;;;14.60;99.90;;;;;;5055291;28;19967;-76
2022/07/10 02:08:46;;;;;;;;;;;14.70;99.90;;;;;;5072196;28;19964;-76
2022/07/10 02:11:12;;;;;;;;;;;14.70;99.90;;;;;;5069458;28;19929;-76
2022/07/10 02:13:38;;;;;;;;;;;14.70;99.90;;;;;;5065661;28;19924;-75
2022/07/10 02:16:03;;;;;;;;;;;14.70;99.90;;;;;;5071636;28;19924;-76
2022/07/10 02:18:29;;;;;;;;;;;14.70;99.90;;;;;;5070607;28;19931;-75
2022/07/10 02:20:55;;;;;;;;;;;14.70;99.90;;;;;;5070807;28;19924;-76
2022/07/10 02:23:20;;;;;;;;;;;14.70;99.90;;;;;;5070422;28;19986;-76
2022/07/10 02:25:46;;;;;;;;;;;14.70;99.90;;;;;;5071444;28;19951;-76
2022/07/10 02:28:11;;;;;;;;;;;14.70;99.90;;;;;;5053493;28;19928;-76
2022/07/10 02:30:37;;;;;;;;;;;14.70;99.90;;;;;;5070791;28;19928;-76
2022/07/10 02:33:03;;;;;;;;;;;14.70;99.90;;;;;;5071704;28;19929;-76
2022/07/10 02:35:28;;;;;;;;;;;14.70;99.90;;;;;;5070819;28;19928;-76
2022/07/10 02:37:54;;;;;;;;;;;14.70;99.90;;;;;;5070515;28;19924;-76
2022/07/10 02:40:19;;;;;;;;;;;14.70;99.90;;;;;;5071016;28;19960;-76
2022/07/10 02:42:45;;;;;;;;;;;14.60;99.90;;;;;;5071702;28;19971;-76
2022/07/10 02:45:10;;;;;;;;;;;14.70;99.90;;;;;;5071655;28;19925;-76
2022/07/10 02:47:36;;;;;;;;;;;14.60;99.90;;;;;;5070958;28;19931;-76
2022/07/10 02:50:02;;;;;;;;;;;14.60;99.90;;;;;;5071270;28;19929;-76
2022/07/10 02:52:30;;;;;;;;;;;14.60;99.90;;;;;;5071335;28;19932;-76
2022/07/10 02:54:56;;;;;;;;;;;14.60;99.90;;;;;;5071540;28;19931;-76
2022/07/10 02:57:21;;;;;;;;;;;14.60;99.90;;;;;;5057507;28;20015;-76
2022/07/10 02:59:47;;;;;;;;;;;14.60;99.90;;;;;;5061881;28;19924;-76
2022/07/10 03:02:12;;;;;;;;;;;14.60;99.90;;;;;;5064647;28;19939;-76
2022/07/10 03:04:38;;;;;;;;;;;14.60;99.90;;;;;;5060563;28;19955;-76
2022/07/10 03:07:04;;;;;;;;;;;14.60;99.90;;;;;;5070240;28;19967;-76
2022/07/10 03:09:29;;;;;;;;;;;14.60;99.90;;;;;;5070608;28;19925;-76
2022/07/10 03:11:55;;;;;;;;;;;14.60;99.90;;;;;;5070446;28;19936;-76
2022/07/10 03:14:20;;;;;;;;;;;14.60;99.90;;;;;;5070944;28;19932;-76
2022/07/10 03:16:47;;;;;;;;;;;14.60;99.90;;;;;;5070489;28;19931;-76
2022/07/10 03:19:12;;;;;;;;;;;14.60;99.90;;;;;;5069966;28;19955;-76
2022/07/10 03:21:38;;;;;;;;;;;14.60;99.90;;;;;;5070932;28;20287;-76
2022/07/10 03:24:03;;;;;;;;;;;14.60;99.90;;;;;;5070888;28;20287;-76
2022/07/10 03:26:29;;;;;;;;;;;14.50;99.90;;;;;;5069918;28;19924;-76
2022/07/10 03:28:55;;;;;;;;;;;14.60;99.90;;;;;;5069763;28;19924;-76
2022/07/10 03:31:20;;;;;;;;;;;14.60;99.90;;;;;;5070128;28;20390;-76
2022/07/10 03:33:46;;;;;;;;;;;14.60;99.90;;;;;;5070500;28;19924;-75
2022/07/10 03:36:13;;;;;;;;;;;14.60;99.90;;;;;;5052452;28;19946;-76
2022/07/10 03:38:38;;;;;;;;;;;14.60;99.90;;;;;;5062381;28;19924;-76
2022/07/10 03:41:04;;;;;;;;;;;14.60;99.90;;;;;;5032295;28;19931;-76
2022/07/10 03:43:30;;;;;;;;;;;14.70;99.90;;;;;;5058696;28;19967;-76
2022/07/10 03:45:56;;;;;;;;;;;14.70;99.90;;;;;;5055607;28;19925;-76
2022/07/10 03:48:21;;;;;;;;;;;14.70;99.90;;;;;;5050642;28;20409;-76
2022/07/10 03:50:49;;;;;;;;;;;14.70;99.90;;;;;;5065479;28;19925;-76
2022/07/10 03:53:14;;;;;;;;;;;14.80;99.90;;;;;;5062305;28;19978;-76
2022/07/10 03:55:40;;;;;;;;;;;14.80;99.90;;;;;;5051560;28;19933;-76
2022/07/10 03:58:06;;;;;;;;;;;14.80;99.90;;;;;;5050372;28;19925;-76
2022/07/10 04:00:37;;;;;;;;;;;14.90;99.90;;;;;;5052688;28;19929;-76
2022/07/10 04:03:05;;;;;;;;;;;14.90;99.90;;;;;;5060670;28;19925;-76
2022/07/10 04:05:30;;;;;;;;;;;14.90;99.90;;;;;;5050730;28;20318;-76
2022/07/10 04:07:57;;;;;;;;;;;15.00;99.90;;;;;;5059996;28;19925;-76
2022/07/10 04:10:23;;;;;;;;;;;15.00;99.90;;;;;;5066378;28;19924;-76
2022/07/10 04:12:49;;;;;;;;;;;15.00;99.90;;;;;;5058771;28;19924;-76
2022/07/10 04:15:15;;;;;;;;;;;15.10;99.90;;;;;;5051884;28;19982;-76
2022/07/10 04:17:40;;;;;;;;;;;15.10;99.90;;;;;;5051394;28;19964;-76
2022/07/10 04:20:06;;;;;;;;;;;15.20;99.90;;;;;;5069479;28;21169;-76
2022/07/10 04:22:32;;;;;;;;;;;15.20;99.90;;;;;;5069756;28;19954;-76
2022/07/10 04:24:58;;;;;;;;;;;15.30;99.90;;;;;;5068904;28;19964;-76
2022/07/10 04:27:23;;;;;;;;;;;15.30;99.90;;;;;;5070003;28;19932;-76
2022/07/10 04:29:49;;;;;;;;;;;15.40;99.90;;;;;;5068750;28;19940;-75
2022/07/10 04:32:15;;;;;;;;;;;15.40;99.90;;;;;;5068655;28;19925;-76
2022/07/10 04:34:40;;;;;;;;;;;15.40;99.90;;;;;;5067762;28;20038;-76
2022/07/10 04:37:07;;;;;;;;;;;15.40;99.90;;;;;;5068205;28;20015;-76
2022/07/10 04:39:33;;;;;;;;;;;15.40;99.90;;;;;;5068198;28;19935;-75
2022/07/10 04:41:58;;;;;;;;;;;15.40;99.90;;;;;;5068397;28;20351;-76
2022/07/10 04:44:24;;;;;;;;;;;15.40;99.90;;;;;;5067802;28;20017;-76
2022/07/10 04:46:50;;;;;;;;;;;15.40;99.90;;;;;;5069615;28;19925;-76
2022/07/10 04:49:15;;;;;;;;;;;15.40;99.90;;;;;;5067867;28;20559;-75
2022/07/10 04:51:41;;;;;;;;;;;15.40;99.90;;;;;;5069499;28;20017;-76
2022/07/10 04:54:06;;;;;;;;;;;15.50;99.90;;;;;;5067024;28;19931;-76
2022/07/10 04:56:32;;;;;;;;;;;15.50;99.90;;;;;;5068188;28;19928;-76
2022/07/10 04:58:57;;;;;;;;;;;15.50;99.90;;;;;;5066561;28;20292;-76
2022/07/10 05:01:23;;;;;;;;;;;15.50;99.90;;;;;;5069196;28;20404;-76
2022/07/10 05:03:48;;;;;;;;;;;15.50;99.90;;;;;;5065885;28;19986;-76
2022/07/10 05:06:14;;;;;;;;;;;15.50;99.90;;;;;;5067040;28;19924;-76
2022/07/10 05:08:39;;;;;;;;;;;15.50;99.90;;;;;;5065952;28;20386;-75
2022/07/10 05:11:05;;;;;;;;;;;15.50;99.90;;;;;;5067375;28;19924;-76
2022/07/10 05:13:31;;;;;;;;;;;15.50;99.90;;;;;;5068057;28;19933;-76
2022/07/10 05:15:56;;;;;;;;;;;15.50;99.90;;;;;;5068992;28;20386;-76
2022/07/10 05:18:22;;;;;;;;;;;15.60;99.90;;;;;;5055451;28;20318;-76
2022/07/10 05:20:49;;;;;;;;;;;15.60;99.90;;;;;;5068808;28;19929;-76
2022/07/10 05:23:14;;;;;;;;;;;15.60;99.90;;;;;;5068715;28;19925;-76
2022/07/10 05:25:40;;;;;;;;;;;15.60;99.90;;;;;;5069409;28;20022;-76
2022/07/10 05:28:06;;;;;;;;;;;15.60;99.90;;;;;;5068234;28;20023;-75
2022/07/10 05:30:32;;;;;;;;;;;15.60;99.90;;;;;;5069061;28;20298;-76
2022/07/10 05:32:57;;;;;;;;;;;15.60;99.90;;;;;;5067653;28;19985;-76
2022/07/10 05:35:23;;;;;;;;;;;15.60;99.90;;;;;;5057193;28;19932;-76
2022/07/10 05:37:48;;;;;;;;;;;15.60;99.90;;;;;;5068570;28;19928;-76
2022/07/10 05:40:14;;;;;;;;;;;15.60;99.90;;;;;;5068719;28;19925;-76
2022/07/10 05:42:40;;;;;;;;;;;15.60;99.90;;;;;;5068364;28;19928;-76
2022/07/10 05:45:06;;;;;;;;;;;15.60;99.90;;;;;;5069258;28;19931;-76
2022/07/10 05:47:32;;;;;;;;;;;15.60;99.90;;;;;;5067813;28;20291;-75
2022/07/10 05:49:58;;;;;;;;;;;15.70;99.90;;;;;;5049721;28;19924;-76
2022/07/10 05:52:24;;;;;;;;;;;15.70;99.90;;;;;;5067411;28;19932;-76
2022/07/10 05:54:50;;;;;;;;;;;15.80;99.90;;;;;;5068378;28;19928;-76
2022/07/10 05:57:16;;;;;;;;;;;15.80;99.90;;;;;;5067354;28;20406;-76
2022/07/10 05:59:42;;;;;;;;;;;15.80;99.90;;;;;;5069152;28;19925;-76
2022/07/10 06:02:07;;;;;;;;;;;15.80;99.90;;;;;;5071395;28;19924;-76
2022/07/10 06:04:33;;;;;;;;;;;15.80;99.90;;;;;;5071135;28;19924;-76
2022/07/10 06:06:59;;;;;;;;;;;15.80;99.90;;;;;;5070763;28;19924;-75
2022/07/10 06:09:24;;;;;;;;;;;15.80;99.90;;;;;;5071172;28;19924;-76
2022/07/10 06:11:50;;;;;;;;;;;15.70;99.90;;;;;;5054241;28;19929;-76
2022/07/10 06:14:16;;;;;;;;;;;15.70;99.90;;;;;;5071623;28;20394;-76
2022/07/10 06:16:41;;;;;;;;;;;15.80;99.90;;;;;;5070939;28;19925;-75
2022/07/10 06:19:07;;;;;;;;;;;15.80;99.90;;;;;;5059517;28;20294;-76
2022/07/10 06:21:32;;;;;;;;;;;15.80;99.90;;;;;;5070979;28;19968;-76
2022/07/10 06:23:58;;;;;;;;;;;15.70;99.90;;;;;;5052442;28;19932;-76
2022/07/10 06:26:24;;;;;;;;;;;15.70;99.90;;;;;;5066006;28;19928;-76
2022/07/10 06:28:50;;;;;;;;;;;15.70;99.90;;;;;;5066222;28;19936;-76
2022/07/10 06:31:16;;;;;;;;;;;15.70;99.90;;;;;;5066123;28;19932;-76
2022/07/10 06:33:41;;;;;;;;;;;15.80;99.90;;;;;;5054284;28;19924;-76
2022/07/10 06:36:07;;;;;;;;;;;15.80;99.90;;;;;;5057605;28;19970;-76
2022/07/10 06:38:33;;;;;;;;;;;15.90;99.90;;;;;;5067270;28;19984;-76
2022/07/10 06:40:58;;;;;;;;;;;16.10;99.90;;;;;;5056118;28;19929;-76
2022/07/10 06:43:24;;;;;;;;;;;16.20;99.90;;;;;;5060140;28;19925;-76
2022/07/10 06:45:50;;;;;;;;;;;16.30;99.90;;;;;;5054043;28;19977;-76
2022/07/10 06:48:15;;;;;;;;;;;16.60;99.90;;;;;;5056880;28;19932;-76
2022/07/10 06:50:41;;;;;;;;;;;16.80;99.90;;;;;;5052194;28;19960;-76
2022/07/10 06:53:06;;;;;;;;;;;16.90;99.90;;;;;;5054125;28;19925;-76
2022/07/10 06:55:32;;;;;;;;;;;17.00;99.90;;;;;;5054998;28;20008;-76
2022/07/10 06:57:58;;;;;;;;;;;17.00;99.90;;;;;;5055424;28;19925;-76
2022/07/10 07:00:24;;;;;;;;;;;17.20;99.90;;;;;;5057970;28;19935;-76
2022/07/10 07:02:50;;;;;;;;;;;17.20;99.90;;;;;;5052429;28;19933;-77
2022/07/10 07:05:16;;;;;;;;;;;17.20;99.90;;;;;;5059613;28;19979;-76
2022/07/10 07:07:41;;;;;;;;;;;17.10;99.90;;;;;;5061472;28;19931;-76
2022/07/10 07:10:07;;;;;;;;;;;17.20;99.90;;;;;;5058875;28;19939;-76
2022/07/10 07:12:33;;;;;;;;;;;17.30;99.90;;;;;;5057620;28;20007;-76
2022/07/10 07:14:58;;;;;;;;;;;17.40;99.90;;;;;;5057246;28;20012;-75
2022/07/10 07:17:33;;;;;;;;;;;17.40;99.90;;;;;;5069678;28;20406;-76
2022/07/10 07:25:28;;;;;;;;;;;17.60;99.90;;;;;;5056455;28;19978;-76
2022/07/10 07:27:54;;;;;;;;;;;17.50;99.90;;;;;;5060262;28;20597;-76
2022/07/10 07:30:19;;;;;;;;;;;17.40;99.90;;;;;;5055020;28;19925;-76
2022/07/10 07:32:46;;;;;;;;;;;17.50;99.90;;;;;;5051689;28;19972;-76
2022/07/10 07:35:12;;;;;;;;;;;17.60;99.90;;;;;;5055361;28;19986;-76
2022/07/10 07:37:45;;;;;;;;;;;17.70;99.90;;;;;;5049636;28;20024;-76
2022/07/10 07:40:11;;;;;;;;;;;17.70;99.90;;;;;;5040868;28;19928;-76
2022/07/10 07:42:37;;;;;;;;;;;17.60;99.90;;;;;;5051679;28;20031;-76
2022/07/10 07:45:03;;;;;;;;;;;17.60;99.90;;;;;;5045043;28;20011;-76
2022/07/10 07:47:30;;;;;;;;;;;17.60;99.90;;;;;;5058242;28;19928;-76
2022/07/10 07:49:56;;;;;;;;;;;17.60;99.90;;;;;;5056037;28;19964;-76
2022/07/10 07:52:22;;;;;;;;;;;17.70;99.90;;;;;;5050494;28;19968;-76
2022/07/10 07:54:48;;;;;;;;;;;17.70;99.90;;;;;;5053284;28;19979;-76
2022/07/10 07:57:14;;;;;;;;;;;17.70;99.90;;;;;;5062546;28;20609;-77
2022/07/10 07:59:39;;;;;;;;;;;17.80;99.90;;;;;;5065613;28;19940;-76
2022/07/10 08:02:05;;;;;;;;;;;17.80;99.90;;;;;;5063808;28;20390;-76
2022/07/10 08:04:30;;;;;;;;;;;17.70;99.90;;;;;;5064287;28;19950;-76
2022/07/10 08:06:56;;;;;;;;;;;17.60;99.90;;;;;;5057006;28;19936;-76
2022/07/10 08:09:21;;;;;;;;;;;17.60;99.90;;;;;;5034406;28;20314;-76
2022/07/10 08:11:47;;;;;;;;;;;17.70;99.90;;;;;;5052130;28;19925;-76
2022/07/10 08:14:14;;;;;;;;;;;17.80;99.90;;;;;;5054196;28;19929;-77
2022/07/10 08:16:39;;;;;;;;;;;17.90;99.90;;;;;;5052016;28;19929;-76
2022/07/10 08:19:05;;;;;;;;;;;17.90;99.90;;;;;;5058004;28;19932;-76
2022/07/10 08:21:31;;;;;;;;;;;18.00;99.90;;;;;;5051211;28;19931;-76
2022/07/10 08:23:57;;;;;;;;;;;17.80;99.90;;;;;;5050833;28;19929;-75
2022/07/10 08:26:22;;;;;;;;;;;17.80;99.90;;;;;;5058294;28;19931;-76
2022/07/10 08:28:48;;;;;;;;;;;17.80;99.90;;;;;;5048765;28;19932;-76
2022/07/10 08:31:13;;;;;;;;;;;17.70;99.90;;;;;;5038508;28;19925;-76
2022/07/10 08:33:39;;;;;;;;;;;17.60;99.90;;;;;;5052707;28;20976;-76
2022/07/10 08:36:05;;;;;;;;;;;17.50;99.90;;;;;;5053371;28;20036;-76
2022/07/10 08:38:30;;;;;;;;;;;17.40;99.90;;;;;;5060097;28;19924;-75
2022/07/10 08:40:57;;;;;;;;;;;17.30;99.90;;;;;;5051688;28;20344;-74
2022/07/10 08:43:24;;;;;;;;;;;17.20;99.90;;;;;;5053919;28;19925;-75
2022/07/10 08:45:50;;;;;;;;;;;17.30;99.90;;;;;;5063727;28;20361;-75
2022/07/10 08:48:18;;;;;;;;;;;17.40;99.90;;;;;;5069779;28;20336;-75
2022/07/10 08:50:47;;;;;;;;;;;17.50;99.90;;;;;;5065163;28;19929;-76
2022/07/10 08:53:16;;;;;;;;;;;17.60;99.90;;;;;;5057732;28;19924;-75
2022/07/10 08:55:41;;;;;;;;;;;17.70;99.90;;;;;;5069326;28;20299;-77
2022/07/10 08:58:11;;;;;;;;;;;17.90;99.90;;;;;;5069202;28;19931;-74
2022/07/10 09:00:37;;;;;;;;;;;18.00;99.90;;;;;;5034816;28;19979;-74
2022/07/10 09:03:02;;;;;;;;;;;18.10;99.90;;;;;;5068569;28;19994;-74
2022/07/10 09:05:28;;;;;;;;;;;18.10;99.90;;;;;;5069258;28;19933;-74
2022/07/10 09:07:54;;;;;;;;;;;18.20;99.90;;;;;;5065537;28;19924;-74
2022/07/10 09:10:20;;;;;;;;;;;18.30;99.90;;;;;;5068200;28;19948;-72
2022/07/10 09:12:59;;;;;;;;;;;18.40;99.90;;;;;;5069392;28;20314;-75
2022/07/10 09:15:26;;;;;;;;;;;18.40;99.90;;;;;;5068201;28;19974;-75
2022/07/10 09:17:56;;;;;;;;;;;18.30;99.90;;;;;;5068488;28;20145;-75
2022/07/10 09:20:25;;;;;;;;;;;18.30;99.90;;;;;;5065918;28;20007;-75
2022/07/10 09:22:51;;;;;;;;;;;18.30;99.90;;;;;;5068579;28;20012;-73
2022/07/10 09:25:17;;;;;;;;;;;18.30;99.90;;;;;;5066900;28;20047;-75
2022/07/10 09:27:52;;;;;;;;;;;18.40;99.90;;;;;;5066501;28;19995;-74
2022/07/10 09:30:44;;;;;;;;;;;18.40;99.90;;;;;;5046282;28;19929;-75
2022/07/10 09:33:17;;;;;;;;;;;18.50;99.90;;;;;;5064043;28;19928;-75
2022/07/10 09:36:04;;;;;;;;;;;18.30;99.90;;;;;;5065694;28;20012;-75
2022/07/10 09:38:39;;;;;;;;;;;18.20;99.90;;;;;;5061352;28;19990;-74
2022/07/10 09:41:11;;;;;;;;;;;18.00;99.90;;;;;;5072527;28;19964;-75
2022/07/10 09:43:53;;;;;;;;;;;17.90;99.90;;;;;;5060221;28;20597;-75
2022/07/10 09:46:21;;;;;;;;;;;17.80;99.90;;;;;;5064328;28;19935;-75
2022/07/10 09:48:47;;;;;;;;;;;17.80;99.90;;;;;;5068536;28;19977;-75
2022/07/10 09:51:13;;;;;;;;;;;17.70;99.90;;;;;;5058215;28;19924;-75
2022/07/10 09:53:40;;;;;;;;;;;17.70;99.90;;;;;;5071176;28;19925;-75
2022/07/10 09:56:09;;;;;;;;;;;17.70;99.90;;;;;;5050168;28;19924;-75
2022/07/10 09:58:35;;;;;;;;;;;17.90;99.90;;;;;;5069340;28;19925;-74
2022/07/10 10:01:05;;;;;;;;;;;18.00;99.90;;;;;;5053560;28;19928;-75
2022/07/10 10:03:36;;;;;;;;;;;18.00;99.90;;;;;;5072000;28;19925;-69
2022/07/10 10:06:03;;;;;;;;;;;18.00;99.90;;;;;;5072194;28;19937;-74
2022/07/10 10:08:30;;;;;;;;;;;18.00;99.90;;;;;;5066543;28;20383;-74
2022/07/10 10:10:57;;;;;;;;;;;17.80;99.90;;;;;;5061880;28;19925;-74
2022/07/10 10:13:27;;;;;;;;;;;17.80;99.90;;;;;;5061322;28;20299;-74
2022/07/10 10:15:52;;;;;;;;;;;17.80;99.90;;;;;;5025859;28;19924;-74
2022/07/10 10:18:19;;;;;;;;;;;17.80;99.90;;;;;;5071948;28;19931;-74
2022/07/10 10:20:45;;;;;;;;;;;17.70;99.90;;;;;;5071818;28;19924;-74
2022/07/10 10:23:21;;;;;;;;;;;17.70;99.90;;;;;;5057486;28;19979;-74
2022/07/10 10:25:47;;;;;;;;;;;17.70;99.90;;;;;;5052595;28;19925;-74
2022/07/10 10:28:14;;;;;;;;;;;17.70;99.90;;;;;;5067904;28;19925;-73
2022/07/10 10:30:41;;;;;;;;;;;17.70;99.90;;;;;;5062612;28;20091;-73
2022/07/10 10:33:26;;;;;;;;;;;17.70;99.90;;;;;;5068408;28;19924;-73
2022/07/10 10:35:51;;;;;;;;;;;17.70;99.90;;;;;;5060084;28;19925;-73
2022/07/10 10:38:17;;;;;;;;;;;17.80;99.90;;;;;;5056711;28;19924;-73
2022/07/10 10:40:42;;;;;;;;;;;17.80;99.90;;;;;;5071296;28;19933;-73
2022/07/10 10:43:20;;;;;;;;;;;17.70;99.90;;;;;;5053773;28;19925;-74
2022/07/10 10:45:50;;;;;;;;;;;17.80;99.90;;;;;;5051457;28;20008;-73
2022/07/10 10:48:17;;;;;;;;;;;17.90;99.90;;;;;;5064214;28;19925;-73
2022/07/10 10:50:46;;;;;;;;;;;18.10;99.90;;;;;;5052149;28;19931;-74
2022/07/10 10:53:16;;;;;;;;;;;18.20;99.90;;;;;;5059097;28;20283;-73
2022/07/10 10:56:01;;;;;;;;;;;18.30;99.90;;;;;;5069437;28;20034;-74
2022/07/10 10:58:27;;;;;;;;;;;18.40;99.90;;;;;;5052021;28;19932;-73
2022/07/10 11:01:25;;;;;;;;;;;18.50;99.90;;;;;;5051993;28;20310;-74
2022/07/10 11:04:03;;;;;;;;;;;18.50;99.90;;;;;;5066642;28;20306;-73
2022/07/10 11:06:38;;;;;;;;;;;18.50;99.90;;;;;;5071307;28;19983;-73
2022/07/10 11:09:21;;;;;;;;;;;18.50;99.90;;;;;;5065847;28;19928;-73
2022/07/10 11:11:57;;;;;;;;;;;18.30;99.90;;;;;;5065179;28;20018;-73
2022/07/10 11:14:27;;;;;;;;;;;18.10;99.90;;;;;;5059220;28;20386;-73
2022/07/10 11:16:53;;;;;;;;;;;18.00;99.90;;;;;;5068638;28;19924;-73
2022/07/10 11:19:21;;;;;;;;;;;18.00;99.90;;;;;;5060147;28;19970;-73
2022/07/10 11:21:49;;;;;;;;;;;18.00;99.90;;;;;;5070034;28;20096;-76
2022/07/10 11:24:26;;;;;;;;;;;17.90;99.90;;;;;;5070548;28;20011;-76
2022/07/10 11:26:58;;;;;;;;;;;17.90;99.90;;;;;;5070656;28;20014;-75
2022/07/10 11:29:23;;;;;;;;;;;17.90;99.90;;;;;;5070749;28;19986;-74
2022/07/10 11:31:52;;;;;;;;;;;17.90;99.90;;;;;;5070715;28;20395;-73
2022/07/10 11:34:18;;;;;;;;;;;17.90;99.90;;;;;;5052034;28;19925;-72
2022/07/10 11:36:44;;;;;;;;;;;17.90;99.90;;;;;;5070332;28;19954;-73
2022/07/10 11:39:09;;;;;;;;;;;17.90;99.90;;;;;;5070624;28;19924;-73
2022/07/10 11:41:45;;;;;;;;;;;17.70;99.90;;;;;;5070226;28;19924;-73
2022/07/10 11:44:16;;;;;;;;;;;17.60;99.90;;;;;;5069836;28;19932;-73
2022/07/10 11:46:44;;;;;;;;;;;17.50;99.90;;;;;;5058503;28;19979;-73
2022/07/10 11:49:10;;;;;;;;;;;17.40;99.90;;;;;;5052535;28;20361;-73
2022/07/10 11:51:37;;;;;;;;;;;17.30;99.90;;;;;;5070317;28;19924;-73
2022/07/10 11:54:02;;;;;;;;;;;17.30;99.90;;;;;;5070138;28;19970;-73
2022/07/10 11:56:32;;;;;;;;;;;17.30;99.90;;;;;;5050957;28;19928;-73
2022/07/10 11:58:59;;;;;;;;;;;17.30;99.90;;;;;;5057128;28;19931;-73
2022/07/10 12:01:25;;;;;;;;;;;17.20;99.90;;;;;;5070042;28;19924;-73
2022/07/10 12:04:05;;;;;;;;;;;17.20;99.90;;;;;;5068388;28;19924;-73
2022/07/10 12:06:31;;;;;;;;;;;17.20;99.90;;;;;;5060583;28;19924;-73
2022/07/10 12:09:04;;;;;;;;;;;17.30;99.90;;;;;;5056284;28;19925;-73
2022/07/10 12:11:29;;;;;;;;;;;17.40;99.90;;;;;;5058746;28;20448;-73
2022/07/10 12:14:07;;;;;;;;;;;17.50;99.90;;;;;;5067906;28;19924;-73
2022/07/10 12:16:35;;;;;;;;;;;17.50;99.90;;;;;;5069738;28;19928;-73
2022/07/10 12:19:01;;;;;;;;;;;17.50;99.90;;;;;;5069782;28;19976;-73
2022/07/10 12:21:26;;;;;;;;;;;17.50;99.90;;;;;;5069750;28;19925;-73
2022/07/10 12:23:52;;;;;;;;;;;17.40;99.90;;;;;;5069538;28;19931;-73
2022/07/10 12:26:17;;;;;;;;;;;17.40;99.90;;;;;;5051744;28;20408;-73
2022/07/10 12:28:55;;;;;;;;;;;17.40;99.90;;;;;;5070102;28;19924;-74
2022/07/10 12:31:22;;;;;;;;;;;17.40;99.90;;;;;;5054505;28;20382;-74
2022/07/10 12:33:52;;;;;;;;;;;17.40;99.90;;;;;;5050304;28;19925;-73
2022/07/10 12:36:18;;;;;;;;;;;17.30;99.90;;;;;;5062930;28;19975;-73
2022/07/10 12:38:52;;;;;;;;;;;17.30;99.90;;;;;;5050147;28;19971;-73
2022/07/10 12:41:22;;;;;;;;;;;17.30;99.90;;;;;;5052778;28;19974;-74
2022/07/10 12:43:48;;;;;;;;;;;17.40;99.90;;;;;;5058869;28;19951;-74
2022/07/10 12:46:15;;;;;;;;;;;17.50;99.90;;;;;;5065621;28;19932;-74
2022/07/10 12:49:00;;;;;;;;;;;17.50;99.90;;;;;;5062863;28;19928;-73
2022/07/10 12:51:26;;;;;;;;;;;17.60;99.90;;;;;;5052748;28;19932;-73
2022/07/10 12:53:52;;;;;;;;;;;17.60;99.90;;;;;;5052636;28;19947;-73
2022/07/10 12:56:34;;;;;;;;;;;17.50;99.90;;;;;;5068891;28;19928;-74
2022/07/10 12:59:00;;;;;;;;;;;17.50;99.90;;;;;;5069095;28;19925;-73
2022/07/10 13:01:38;;;;;;;;;;;17.50;99.90;;;;;;5068310;28;19932;-73
2022/07/10 13:04:04;;;;;;;;;;;17.50;99.90;;;;;;5063992;28;19931;-74
2022/07/10 13:06:31;;;;;;;;;;;17.40;99.90;;;;;;5060815;28;20356;-73
2022/07/10 13:08:56;;;;;;;;;;;17.30;99.90;;;;;;5070862;28;19947;-73
2022/07/10 13:11:22;;;;;;;;;;;17.30;99.90;;;;;;5072251;28;19954;-74
2022/07/10 13:13:48;;;;;;;;;;;17.40;99.90;;;;;;5071808;28;19978;-74
2022/07/10 13:16:13;;;;;;;;;;;17.50;99.90;;;;;;5072795;28;19974;-74
2022/07/10 13:18:41;;;;;;;;;;;17.50;99.90;;;;;;5073037;28;19931;-74
2022/07/10 13:21:07;;;;;;;;;;;17.60;99.90;;;;;;5072965;28;19925;-74
2022/07/10 13:23:32;;;;;;;;;;;17.60;99.90;;;;;;5072228;28;19928;-74
2022/07/10 13:25:58;;;;;;;;;;;17.60;99.90;;;;;;5072561;28;19928;-74
2022/07/10 13:28:24;;;;;;;;;;;17.60;99.90;;;;;;5070175;28;19924;-74
2022/07/10 13:30:50;;;;;;;;;;;17.60;99.90;;;;;;5069807;28;19997;-75
2022/07/10 13:33:17;;;;;;;;;;;17.50;99.90;;;;;;5065154;28;19929;-75
2022/07/10 13:35:42;;;;;;;;;;;17.50;99.90;;;;;;5055306;28;20325;-75
2022/07/10 13:38:08;;;;;;;;;;;17.40;99.90;;;;;;5063689;28;19977;-75
2022/07/10 13:40:36;;;;;;;;;;;17.40;99.90;;;;;;5065705;28;19985;-75
2022/07/10 13:43:02;;;;;;;;;;;17.40;99.90;;;;;;5070824;28;19924;-75
2022/07/10 13:45:32;;;;;;;;;;;17.50;99.90;;;;;;5053655;28;19961;-75
2022/07/10 13:47:57;;;;;;;;;;;17.50;99.90;;;;;;5059938;28;19924;-75
2022/07/10 13:50:24;;;;;;;;;;;17.60;99.90;;;;;;5064799;28;19931;-75
2022/07/10 13:52:50;;;;;;;;;;;17.70;99.90;;;;;;5070290;28;20002;-74
2022/07/10 13:55:16;;;;;;;;;;;17.70;99.90;;;;;;5070437;28;20410;-75
2022/07/10 13:57:41;;;;;;;;;;;17.80;99.90;;;;;;5071225;28;19928;-74
2022/07/10 14:00:07;;;;;;;;;;;17.70;99.90;;;;;;5060388;28;19964;-75
2022/07/10 14:02:33;;;;;;;;;;;17.70;99.90;;;;;;5068494;28;20022;-75
2022/07/10 14:04:58;;;;;;;;;;;17.70;99.90;;;;;;5071384;28;20581;-75
2022/07/10 14:07:24;;;;;;;;;;;17.70;99.90;;;;;;5071091;28;19948;-74
2022/07/10 14:09:50;;;;;;;;;;;17.60;99.90;;;;;;5070600;28;19951;-74
2022/07/10 14:12:15;;;;;;;;;;;17.60;99.90;;;;;;5068604;28;19932;-74
2022/07/10 14:14:41;;;;;;;;;;;17.50;99.90;;;;;;5071101;28;19962;-74
2022/07/10 14:17:06;;;;;;;;;;;17.60;99.90;;;;;;5072179;28;19924;-74
2022/07/10 14:19:32;;;;;;;;;;;17.60;99.90;;;;;;5070913;28;19935;-74
2022/07/10 14:21:59;;;;;;;;;;;17.70;99.90;;;;;;5070566;28;20345;-75
2022/07/10 14:24:24;;;;;;;;;;;17.70;99.90;;;;;;5071813;28;19924;-74